Time;durP1;ratioP1;P1;durP2;ratioP2;P2;SDS_P1;SDS_P2;PMS_P1;PMS_P2;Temp;Humidity;BMP_temperature;BMP_pressure;BME280_temperature;BME280_humidity;BME280_pressure;Samples;Min_cycle;Max_cycle;Signal;HPM_P1;HPM_P2
2024/01/07 00:01:49;;;;;;;31.43;14.70;;;;;;;-148.15;100.00;61821.78;4884183;29;20124;-94
2024/01/07 00:25:31;;;;;;;32.78;15.07;;;;;;;-148.15;100.00;61821.78;4913611;29;20055;-93
2024/01/07 00:28:45;;;;;;;31.15;15.73;;;;;;;-148.15;100.00;61821.78;4933708;29;20042;-95
2024/01/07 00:33:57;;;;;;;29.85;14.55;;;;;;;-148.15;100.00;61821.78;5006475;28;20045;-93
2024/01/07 00:37:07;;;;;;;28.90;15.00;;;;;;;-148.15;100.00;61821.78;5016910;28;20030;-93
2024/01/07 00:43:14;;;;;;;26.75;13.48;;;;;;;-148.15;100.00;61821.78;4954974;28;20050;-94
2024/01/07 00:49:05;;;;;;;22.87;13.27;;;;;;;-148.15;100.00;61821.78;4930509;29;20272;-93
2024/01/07 00:51:30;;;;;;;22.75;13.23;;;;;;;-148.15;100.00;61821.78;4836061;29;20038;-93
2024/01/07 00:54:19;;;;;;;20.87;12.03;;;;;;;-148.15;100.00;61821.78;4849659;29;20098;-92
2024/01/07 01:01:06;;;;;;;21.55;11.95;;;;;;;-148.15;100.00;61821.78;4859708;29;20122;-94
2024/01/07 01:03:31;;;;;;;18.63;11.68;;;;;;;-148.15;100.00;61821.78;4819775;29;20407;-94
2024/01/07 01:06:21;;;;;;;23.67;11.77;;;;;;;-148.15;100.00;61821.78;4919219;29;20118;-93
2024/01/07 01:08:47;;;;;;;23.20;12.43;;;;;;;-148.15;100.00;61821.78;4953893;28;20449;-91
2024/01/07 01:11:12;;;;;;;26.23;13.07;;;;;;;-148.15;100.00;61821.78;5003640;28;20034;-94
2024/01/07 01:17:18;;;;;;;26.75;14.38;;;;;;;-148.15;100.00;61821.78;4967986;29;20035;-94
2024/01/07 01:20:31;;;;;;;;;;;;;;;;;;;;;
2024/01/07 01:23:06;;;;;;;28.80;14.70;;;;;;;-148.15;100.00;61821.78;4918075;29;20079;-93
2024/01/07 01:29:03;;;;;;;23.60;12.17;;;;;;;-148.15;100.00;61821.78;5013722;28;20045;-95
2024/01/07 01:31:31;;;;;;;28.02;12.65;;;;;;;-148.15;100.00;61821.78;5013798;28;20014;-94
2024/01/07 01:34:21;;;;;;;28.15;15.95;;;;;;;-148.15;100.00;61821.78;5123885;23;20054;-94
2024/01/07 01:44:13;;;;;;;31.47;15.03;;;;;;;-148.15;100.00;61821.78;4994033;23;20130;-93
2024/01/07 01:50:11;;;;;;;34.83;16.63;;;;;;;-148.15;100.00;61821.78;5016034;28;20034;-94
2024/01/07 01:53:11;;;;;;;31.83;15.00;;;;;;;-148.15;100.00;61821.78;4981517;28;20041;-93
2024/01/07 02:02:34;;;;;;;;;;;;;;;;;;;;;
2024/01/07 02:05:44;;;;;;;35.88;15.38;;;;;;;-148.15;100.00;61821.78;4934379;28;20142;-93
2024/01/07 02:08:25;;;;;;;36.90;16.55;;;;;;;-148.15;100.00;61821.78;4994757;28;20502;-93
2024/01/07 02:11:06;;;;;;;32.78;15.90;;;;;;;-148.15;100.00;61821.78;4975362;28;20022;-93
2024/01/07 02:13:31;;;;;;;37.33;16.85;;;;;;;-148.15;100.00;61821.78;4992275;28;20045;-93
2024/01/07 02:15:57;;;;;;;37.00;16.90;;;;;;;-148.15;100.00;61821.78;4991969;28;20018;-92
2024/01/07 02:18:22;;;;;;;34.33;17.20;;;;;;;-148.15;100.00;61821.78;4992558;28;20115;-93
2024/01/07 02:20:47;;;;;;;33.37;15.73;;;;;;;-148.15;100.00;61821.78;4992391;28;20023;-93
2024/01/07 02:23:13;;;;;;;33.50;15.77;;;;;;;-148.15;100.00;61821.78;4991844;28;20775;-93
2024/01/07 02:25:38;;;;;;;39.17;18.37;;;;;;;-148.15;100.00;61821.78;4992793;28;20034;-94
2024/01/07 02:28:05;;;;;;;37.83;16.60;;;;;;;-148.15;100.00;61821.78;4992248;28;20028;-94
2024/01/07 02:30:30;;;;;;;38.75;15.82;;;;;;;-148.15;100.00;61821.78;4992429;28;20464;-94
2024/01/07 02:32:55;;;;;;;36.73;17.13;;;;;;;-148.15;100.00;61821.78;4975115;28;20018;-94
2024/01/07 02:35:21;;;;;;;43.97;17.23;;;;;;;-148.15;100.00;61821.78;4992996;28;20026;-94
2024/01/07 02:37:50;;;;;;;41.40;17.35;;;;;;;-148.15;100.00;61821.78;4992766;28;20033;-95
2024/01/07 02:40:15;;;;;;;40.20;17.50;;;;;;;-148.15;100.00;61821.78;4982926;28;20026;-94
2024/01/07 02:42:41;;;;;;;43.85;18.13;;;;;;;-148.15;100.00;61821.78;4990275;28;20098;-94
2024/01/07 02:45:07;;;;;;;44.63;18.90;;;;;;;-148.15;100.00;61821.78;5003993;28;20134;-93
2024/01/07 02:47:32;;;;;;;43.43;17.97;;;;;;;-148.15;100.00;61821.78;5008562;28;20034;-93
2024/01/07 02:49:57;;;;;;;40.35;18.05;;;;;;;-148.15;100.00;61821.78;4982975;28;20034;-93
2024/01/07 02:52:23;;;;;;;44.67;19.23;;;;;;;-148.15;100.00;61821.78;4998452;28;20026;-93
2024/01/07 02:54:48;;;;;;;48.43;18.47;;;;;;;-148.15;100.00;61821.78;5000601;28;20022;-95
2024/01/07 02:57:14;;;;;;;51.20;20.60;;;;;;;-148.15;100.00;61821.78;4999540;28;20489;-95
2024/01/07 02:59:39;;;;;;;47.00;19.57;;;;;;;-148.15;100.00;61821.78;4998573;28;20069;-93
2024/01/07 03:02:04;;;;;;;51.35;19.65;;;;;;;-148.15;100.00;61821.78;4997734;28;20065;-93
2024/01/07 03:04:32;;;;;;;47.77;20.13;;;;;;;-148.15;100.00;61821.78;4994352;28;20035;-93
2024/01/07 03:07:04;;;;;;;51.17;20.15;;;;;;;-148.15;100.00;61821.78;4974874;28;20042;-94
2024/01/07 03:09:32;;;;;;;50.05;21.00;;;;;;;-148.15;100.00;61821.78;4973733;28;20080;-93
2024/01/07 03:12:03;;;;;;;47.67;19.87;;;;;;;-148.15;100.00;61821.78;4990493;28;20022;-95
2024/01/07 03:14:28;;;;;;;43.05;16.23;;;;;;;-148.15;100.00;61821.78;4974238;28;20019;-94
2024/01/07 03:16:54;;;;;;;49.07;19.80;;;;;;;-148.15;100.00;61821.78;4974828;28;20100;-92
2024/01/07 03:19:20;;;;;;;49.90;19.58;;;;;;;-148.15;100.00;61821.78;4974129;28;20027;-93
2024/01/07 03:21:46;;;;;;;49.70;20.30;;;;;;;-148.15;100.00;61821.78;4989396;28;20050;-93
2024/01/07 03:24:11;;;;;;;48.03;20.20;;;;;;;-148.15;100.00;61821.78;4991700;28;20057;-93
2024/01/07 03:26:44;;;;;;;55.93;21.17;;;;;;;-148.15;100.00;61821.78;4974529;28;20509;-94
2024/01/07 03:29:12;;;;;;;49.42;19.55;;;;;;;-148.15;100.00;61821.78;4984197;28;20029;-93
2024/01/07 03:31:39;;;;;;;48.67;19.43;;;;;;;-148.15;100.00;61821.78;4981363;28;20117;-93
2024/01/07 03:34:04;;;;;;;55.03;21.70;;;;;;;-148.15;100.00;61821.78;5008315;28;20309;-94
2024/01/07 03:36:29;;;;;;;50.90;19.67;;;;;;;-148.15;100.00;61821.78;4980313;28;20022;-94
2024/01/07 03:38:55;;;;;;;52.93;21.40;;;;;;;-148.15;100.00;61821.78;4995987;28;20486;-94
2024/01/07 03:41:20;;;;;;;48.13;20.93;;;;;;;-148.15;100.00;61821.78;4999521;28;20037;-94
2024/01/07 03:43:49;;;;;;;54.47;22.03;;;;;;;-148.15;100.00;61821.78;5005699;28;20063;-92
2024/01/07 03:46:15;;;;;;;41.30;19.92;;;;;;;-148.15;100.00;61821.78;5001111;28;20036;-94
2024/01/07 03:48:52;;;;;;;41.25;17.85;;;;;;;-148.15;100.00;61821.78;4995333;28;20105;-94
2024/01/07 03:51:17;;;;;;;38.63;16.27;;;;;;;-148.15;100.00;61821.78;4994207;28;20054;-93
2024/01/07 03:53:42;;;;;;;40.33;19.77;;;;;;;-148.15;100.00;61821.78;4981566;28;20066;-95
2024/01/07 03:56:08;;;;;;;40.57;18.80;;;;;;;-148.15;100.00;61821.78;4977138;28;20035;-94
2024/01/07 03:58:35;;;;;;;41.97;19.57;;;;;;;-148.15;100.00;61821.78;4977672;28;20034;-94
2024/01/07 04:01:04;;;;;;;34.50;17.05;;;;;;;-148.15;100.00;61821.78;4994040;28;20050;-94
2024/01/07 04:03:30;;;;;;;34.80;18.35;;;;;;;-148.15;100.00;61821.78;4977385;28;20158;-94
2024/01/07 04:05:55;;;;;;;34.27;17.03;;;;;;;-148.15;100.00;61821.78;4993995;28;20059;-93
2024/01/07 04:08:21;;;;;;;34.43;16.60;;;;;;;-148.15;100.00;61821.78;4994426;28;20035;-94
2024/01/07 04:10:57;;;;;;;35.97;16.67;;;;;;;-148.15;100.00;61821.78;4993793;28;20091;-94
2024/01/07 04:13:22;;;;;;;35.25;16.33;;;;;;;-148.15;100.00;61821.78;4976482;28;20042;-94
2024/01/07 04:15:47;;;;;;;35.27;16.37;;;;;;;-148.15;100.00;61821.78;4988569;28;20019;-94
2024/01/07 04:18:13;;;;;;;30.00;14.77;;;;;;;-148.15;100.00;61821.78;4994852;28;20030;-94
2024/01/07 04:20:38;;;;;;;31.77;14.77;;;;;;;-148.15;100.00;61821.78;5003230;28;20057;-93
2024/01/07 04:23:04;;;;;;;34.03;15.55;;;;;;;-148.15;100.00;61821.78;4998271;28;20034;-94
2024/01/07 04:25:29;;;;;;;30.27;14.57;;;;;;;-148.15;100.00;61821.78;4994906;28;20023;-95
2024/01/07 04:27:54;;;;;;;34.90;16.97;;;;;;;-148.15;100.00;61821.78;4994589;28;20026;-93
2024/01/07 04:30:36;;;;;;;34.93;15.27;;;;;;;-148.15;100.00;61821.78;4976254;28;20026;-93
2024/01/07 04:33:03;;;;;;;36.17;15.88;;;;;;;-148.15;100.00;61821.78;4975891;28;20062;-93
2024/01/07 04:35:28;;;;;;;33.97;16.10;;;;;;;-148.15;100.00;61821.78;4976251;28;20141;-94
2024/01/07 04:37:54;;;;;;;34.83;15.43;;;;;;;-148.15;100.00;61821.78;4993829;28;20391;-93
2024/01/07 04:40:19;;;;;;;34.03;14.90;;;;;;;-148.15;100.00;61821.78;4993454;28;20030;-93
2024/01/07 04:42:44;;;;;;;30.00;13.90;;;;;;;-148.15;100.00;61821.78;4993560;28;20034;-93
2024/01/07 04:45:10;;;;;;;30.33;14.43;;;;;;;-148.15;100.00;61821.78;4993892;28;20027;-94
2024/01/07 04:47:35;;;;;;;28.90;13.40;;;;;;;-148.15;100.00;61821.78;4976340;28;20046;-93
2024/01/07 04:50:07;;;;;;;28.23;14.07;;;;;;;-148.15;100.00;61821.78;4993412;28;20030;-93
2024/01/07 04:52:33;;;;;;;25.38;14.18;;;;;;;-148.15;100.00;61821.78;4993769;28;20389;-94
2024/01/07 04:55:00;;;;;;;23.17;12.27;;;;;;;-148.15;100.00;61821.78;4976104;28;20022;-94
2024/01/07 04:57:26;;;;;;;23.70;11.90;;;;;;;-148.15;100.00;61821.78;4994044;28;20026;-92
2024/01/07 04:59:52;;;;;;;21.13;11.33;;;;;;;-148.15;100.00;61821.78;4993167;28;20331;-94
2024/01/07 05:02:19;;;;;;;15.00;9.52;;;;;;;-148.15;100.00;61821.78;4985605;28;20034;-93
2024/01/07 05:05:08;;;;;;;20.45;10.45;;;;;;;-148.15;100.00;61821.78;5004950;28;20023;-94
2024/01/07 05:07:34;;;;;;;17.95;9.60;;;;;;;-148.15;100.00;61821.78;4999835;28;20022;-94
2024/01/07 05:10:02;;;;;;;17.93;10.60;;;;;;;-148.15;100.00;61821.78;4994903;28;20030;-94
2024/01/07 05:12:27;;;;;;;19.40;10.45;;;;;;;-148.15;100.00;61821.78;4976364;28;20023;-93
2024/01/07 05:14:55;;;;;;;17.33;9.83;;;;;;;-148.15;100.00;61821.78;4993108;28;20046;-93
2024/01/07 05:17:20;;;;;;;16.63;10.02;;;;;;;-148.15;100.00;61821.78;4993113;28;20042;-93
2024/01/07 05:19:46;;;;;;;18.03;10.33;;;;;;;-148.15;100.00;61821.78;4975266;28;20085;-95
2024/01/07 05:22:11;;;;;;;16.07;8.33;;;;;;;-148.15;100.00;61821.78;4975579;28;20023;-94
2024/01/07 05:24:40;;;;;;;15.45;7.90;;;;;;;-148.15;100.00;61821.78;4992526;28;20105;-94
2024/01/07 05:27:06;;;;;;;17.70;9.45;;;;;;;-148.15;100.00;61821.78;4992832;28;20027;-94
2024/01/07 05:29:35;;;;;;;14.97;9.43;;;;;;;-148.15;100.00;61821.78;4992766;28;20034;-94
2024/01/07 05:32:01;;;;;;;18.75;10.10;;;;;;;-148.15;100.00;61821.78;4975277;28;20018;-95
2024/01/07 05:34:27;;;;;;;18.63;10.95;;;;;;;-148.15;100.00;61821.78;4992424;28;20033;-94
2024/01/07 05:36:53;;;;;;;17.85;9.75;;;;;;;-148.15;100.00;61821.78;4975572;28;20498;-94
2024/01/07 05:39:18;;;;;;;18.50;9.93;;;;;;;-148.15;100.00;61821.78;4978686;28;20117;-94
2024/01/07 05:41:43;;;;;;;16.37;9.60;;;;;;;-148.15;100.00;61821.78;4986192;28;20038;-93
2024/01/07 05:44:09;;;;;;;17.70;10.00;;;;;;;-148.15;100.00;61821.78;5015629;28;20030;-94
2024/01/07 05:46:38;;;;;;;15.10;9.88;;;;;;;-148.15;100.00;61821.78;5010082;28;20018;-93
2024/01/07 05:49:05;;;;;;;15.63;9.73;;;;;;;-148.15;100.00;61821.78;5000303;28;20090;-93
2024/01/07 05:51:31;;;;;;;15.67;9.37;;;;;;;-148.15;100.00;61821.78;4976090;28;20086;-94
2024/01/07 05:53:59;;;;;;;16.55;9.55;;;;;;;-148.15;100.00;61821.78;4994742;28;20021;-93
2024/01/07 05:56:27;;;;;;;14.23;9.02;;;;;;;-148.15;100.00;61821.78;4995543;28;20038;-94
2024/01/07 05:58:52;;;;;;;17.77;9.63;;;;;;;-148.15;100.00;61821.78;4975236;28;20391;-94
2024/01/07 06:01:20;;;;;;;13.97;9.17;;;;;;;-148.15;100.00;61821.78;4984230;28;20050;-94
2024/01/07 06:03:47;;;;;;;13.52;8.50;;;;;;;-148.15;100.00;61821.78;4974534;28;20045;-93
2024/01/07 06:06:14;;;;;;;15.93;9.23;;;;;;;-148.15;100.00;61821.78;4975195;28;20077;-94
2024/01/07 06:08:40;;;;;;;15.57;9.57;;;;;;;-148.15;100.00;61821.78;4992455;28;20029;-94
2024/01/07 06:11:05;;;;;;;15.47;9.50;;;;;;;-148.15;100.00;61821.78;4991993;28;20277;-93
2024/01/07 06:13:32;;;;;;;14.15;9.23;;;;;;;-148.15;100.00;61821.78;4978019;28;20073;-94
2024/01/07 06:15:57;;;;;;;16.13;8.47;;;;;;;-148.15;100.00;61821.78;4975005;28;20081;-92
2024/01/07 06:18:22;;;;;;;11.40;8.33;;;;;;;-148.15;100.00;61821.78;4991851;28;20293;-94
2024/01/07 06:20:48;;;;;;;15.27;9.27;;;;;;;-148.15;100.00;61821.78;4975045;28;20117;-94
2024/01/07 06:23:16;;;;;;;12.70;8.03;;;;;;;-148.15;100.00;61821.78;4974173;28;20130;-92
2024/01/07 06:25:42;;;;;;;13.68;8.50;;;;;;;-148.15;100.00;61821.78;4992343;28;20034;-93
2024/01/07 06:28:10;;;;;;;10.03;6.83;;;;;;;-148.15;100.00;61821.78;4974784;28;20113;-94
2024/01/07 06:30:35;;;;;;;13.50;8.43;;;;;;;-148.15;100.00;61821.78;4992096;28;20019;-92
2024/01/07 06:33:00;;;;;;;13.87;8.00;;;;;;;-148.15;100.00;61821.78;4991805;28;20090;-92
2024/01/07 06:35:26;;;;;;;12.80;7.82;;;;;;;-148.15;100.00;61821.78;4979772;28;20022;-90
2024/01/07 06:37:51;;;;;;;14.23;8.70;;;;;;;-148.15;100.00;61821.78;4976217;28;20022;-91
2024/01/07 06:40:16;;;;;;;13.07;8.50;;;;;;;-148.15;100.00;61821.78;4998211;28;20026;-92
2024/01/07 06:42:43;;;;;;;13.87;8.53;;;;;;;-148.15;100.00;61821.78;4997844;28;20026;-90
2024/01/07 06:45:09;;;;;;;12.27;8.25;;;;;;;-148.15;100.00;61821.78;4973985;28;20037;-91
2024/01/07 06:47:34;;;;;;;12.70;8.60;;;;;;;-148.15;100.00;61821.78;4991175;28;20026;-91
2024/01/07 06:50:00;;;;;;;13.43;8.93;;;;;;;-148.15;100.00;61821.78;4991037;28;20036;-92
2024/01/07 06:52:25;;;;;;;13.77;8.60;;;;;;;-148.15;100.00;61821.78;4990950;28;20033;-92
2024/01/07 06:54:50;;;;;;;13.17;8.50;;;;;;;-148.15;100.00;61821.78;4991116;28;20023;-91
2024/01/07 06:57:15;;;;;;;11.93;8.27;;;;;;;-148.15;100.00;61821.78;4990802;28;20023;-92
2024/01/07 06:59:41;;;;;;;13.07;8.97;;;;;;;-148.15;100.00;61821.78;4991304;28;20118;-92
2024/01/07 07:02:07;;;;;;;16.10;8.93;;;;;;;-148.15;100.00;61821.78;4990345;28;20563;-91
2024/01/07 07:04:32;;;;;;;13.95;8.68;;;;;;;-148.15;100.00;61821.78;4995523;28;20019;-92
2024/01/07 07:07:00;;;;;;;20.13;9.93;;;;;;;-148.15;100.00;61821.78;4977318;28;20022;-92
2024/01/07 07:09:25;;;;;;;15.80;8.60;;;;;;;-148.15;100.00;61821.78;4995155;28;20046;-92
2024/01/07 07:11:50;;;;;;;14.77;9.23;;;;;;;-148.15;100.00;61821.78;4994507;28;20069;-92
2024/01/07 07:14:16;;;;;;;12.70;7.83;;;;;;;-148.15;100.00;61821.78;4995038;28;20037;-92
2024/01/07 07:16:41;;;;;;;14.90;9.27;;;;;;;-148.15;100.00;61821.78;4994979;28;20292;-93
2024/01/07 07:19:06;;;;;;;14.23;8.60;;;;;;;-148.15;100.00;61821.78;4995108;28;20057;-93
2024/01/07 07:21:32;;;;;;;15.43;9.10;;;;;;;-148.15;100.00;61821.78;4978309;28;20104;-92
2024/01/07 07:23:57;;;;;;;14.17;9.47;;;;;;;-148.15;100.00;61821.78;5009950;28;20041;-92
2024/01/07 07:26:23;;;;;;;18.20;10.20;;;;;;;-148.15;100.00;61821.78;5005348;28;20093;-92
2024/01/07 07:28:48;;;;;;;17.47;9.30;;;;;;;-148.15;100.00;61821.78;4998237;28;20019;-93
2024/01/07 07:31:13;;;;;;;17.37;10.37;;;;;;;-148.15;100.00;61821.78;4994144;28;20721;-92
2024/01/07 07:33:39;;;;;;;18.33;10.60;;;;;;;-148.15;100.00;61821.78;4994990;28;20019;-93
2024/01/07 07:36:05;;;;;;;19.10;10.07;;;;;;;-148.15;100.00;61821.78;4994705;28;20371;-92
2024/01/07 07:38:30;;;;;;;17.20;9.85;;;;;;;-148.15;100.00;61821.78;4997865;28;20134;-93
2024/01/07 07:40:56;;;;;;;15.77;9.37;;;;;;;-148.15;100.00;61821.78;5006040;28;20022;-92
2024/01/07 07:43:21;;;;;;;15.93;8.50;;;;;;;-148.15;100.00;61821.78;5010467;28;20475;-93
2024/01/07 07:45:47;;;;;;;15.03;9.73;;;;;;;-148.15;100.00;61821.78;4994728;28;20087;-92
2024/01/07 07:48:12;;;;;;;16.92;9.23;;;;;;;-148.15;100.00;61821.78;4994737;28;20037;-92
2024/01/07 07:50:37;;;;;;;16.20;9.83;;;;;;;-148.15;100.00;61821.78;4976423;28;20036;-93
2024/01/07 07:53:03;;;;;;;15.57;8.83;;;;;;;-148.15;100.00;61821.78;4994344;28;20737;-92
2024/01/07 07:55:28;;;;;;;15.17;7.70;;;;;;;-148.15;100.00;61821.78;4993938;28;20108;-92
2024/01/07 07:57:54;;;;;;;16.13;9.02;;;;;;;-148.15;100.00;61821.78;4994162;28;20023;-92
2024/01/07 08:00:19;;;;;;;16.80;9.77;;;;;;;-148.15;100.00;61821.78;4993685;28;20049;-93
2024/01/07 08:02:45;;;;;;;15.90;9.17;;;;;;;-148.15;100.00;61821.78;4976832;28;20023;-92
2024/01/07 08:05:11;;;;;;;18.15;9.40;;;;;;;-148.15;100.00;61821.78;4976920;28;20367;-93
2024/01/07 08:07:36;;;;;;;16.90;8.47;;;;;;;-148.15;100.00;61821.78;5000294;28;20026;-93
2024/01/07 08:10:01;;;;;;;16.67;8.77;;;;;;;-148.15;100.00;61821.78;4979900;28;20045;-93
2024/01/07 08:12:26;;;;;;;14.05;8.52;;;;;;;-148.15;100.00;61821.78;5010566;28;20027;-93
2024/01/07 08:14:52;;;;;;;13.73;7.87;;;;;;;-148.15;100.00;61821.78;4978968;28;20026;-93
2024/01/07 08:17:17;;;;;;;16.20;9.10;;;;;;;-148.15;100.00;61821.78;4996207;28;20169;-93
2024/01/07 08:19:43;;;;;;;14.43;7.70;;;;;;;-148.15;100.00;61821.78;4994363;28;20532;-94
2024/01/07 08:22:09;;;;;;;10.33;6.53;;;;;;;-148.15;100.00;61821.78;4995660;28;20030;-92
2024/01/07 08:24:34;;;;;;;12.23;7.57;;;;;;;-148.15;100.00;61821.78;4978052;28;20037;-92
2024/01/07 08:27:00;;;;;;;15.73;7.87;;;;;;;-148.15;100.00;61821.78;4995916;28;20026;-92
2024/01/07 08:29:26;;;;;;;14.98;9.10;;;;;;;-148.15;100.00;61821.78;4980360;28;20122;-93
2024/01/07 08:31:51;;;;;;;15.05;8.43;;;;;;;-148.15;100.00;61821.78;4995639;28;20069;-93
2024/01/07 08:34:18;;;;;;;14.87;8.77;;;;;;;-148.15;100.00;61821.78;4980666;28;20505;-93
2024/01/07 08:36:43;;;;;;;15.40;8.63;;;;;;;-148.15;100.00;61821.78;4998896;28;20074;-92
2024/01/07 08:39:09;;;;;;;13.60;8.67;;;;;;;-148.15;100.00;61821.78;4994916;28;20113;-92
2024/01/07 08:41:34;;;;;;;14.33;8.00;;;;;;;-148.15;100.00;61821.78;4994082;28;20038;-92
2024/01/07 08:43:59;;;;;;;12.13;7.63;;;;;;;-148.15;100.00;61821.78;4993427;28;20077;-92
2024/01/07 08:46:25;;;;;;;12.90;7.57;;;;;;;-148.15;100.00;61821.78;4993663;28;20061;-92
2024/01/07 08:48:50;;;;;;;15.73;8.77;;;;;;;-148.15;100.00;61821.78;4993248;28;20030;-92
2024/01/07 08:51:15;;;;;;;13.57;7.93;;;;;;;-148.15;100.00;61821.78;4976561;28;20299;-92
2024/01/07 08:53:41;;;;;;;12.17;7.83;;;;;;;-148.15;100.00;61821.78;4995909;28;20030;-91
2024/01/07 08:56:06;;;;;;;14.43;8.33;;;;;;;-148.15;100.00;61821.78;4989426;28;20019;-90
2024/01/07 08:58:32;;;;;;;13.93;8.10;;;;;;;-148.15;100.00;61821.78;4983247;28;20034;-92
2024/01/07 09:00:57;;;;;;;9.50;5.25;;;;;;;-148.15;100.00;61821.78;5002033;28;20049;-91
2024/01/07 09:03:23;;;;;;;12.83;7.47;;;;;;;-148.15;100.00;61821.78;4992968;28;20058;-92
2024/01/07 09:05:48;;;;;;;13.97;8.57;;;;;;;-148.15;100.00;61821.78;4993080;28;20474;-91
2024/01/07 09:08:14;;;;;;;8.43;5.75;;;;;;;-148.15;100.00;61821.78;4974889;28;20473;-92
2024/01/07 09:10:40;;;;;;;12.73;7.87;;;;;;;-148.15;100.00;61821.78;4975046;28;20490;-91
2024/01/07 09:13:05;;;;;;;12.73;7.78;;;;;;;-148.15;100.00;61821.78;4992710;28;20027;-92
2024/01/07 09:15:30;;;;;;;13.13;8.77;;;;;;;-148.15;100.00;61821.78;4993201;28;20034;-91
2024/01/07 09:17:56;;;;;;;10.63;6.27;;;;;;;-148.15;100.00;61821.78;4992431;28;20058;-93
2024/01/07 09:20:21;;;;;;;8.10;6.37;;;;;;;-148.15;100.00;61821.78;4992484;28;20121;-91
2024/01/07 09:23:00;;;;;;;11.80;7.60;;;;;;;;;;5109247;27;20398;-92
2024/01/07 09:25:26;;;;;;;9.25;6.53;;;;;;;;;;5109208;28;20114;-92
2024/01/07 09:27:51;;;;;;;8.87;7.00;;;;;;;;;;5107402;28;20015;-91
2024/01/07 09:30:17;;;;;;;10.03;7.53;;;;;;;;;;5110290;28;20095;-91
2024/01/07 09:32:42;;;;;;;10.05;7.35;;;;;;;;;;5110760;28;20478;-92
2024/01/07 09:35:08;;;;;;;10.03;6.60;;;;;;;;;;5111118;28;20019;-91
2024/01/07 09:37:33;;;;;;;10.13;6.88;;;;;;;;;;5115156;28;20031;-90
2024/01/07 09:39:59;;;;;;;10.80;6.97;;;;;;;;;;5123857;28;20023;-92
2024/01/07 09:42:24;;;;;;;9.13;6.77;;;;;;;;;;5124917;28;20416;-92
2024/01/07 09:44:50;;;;;;;11.40;6.40;;;;;;;;;;5117601;28;20023;-91
2024/01/07 09:47:15;;;;;;;13.20;7.80;;;;;;;;;;5109521;28;20041;-92
2024/01/07 09:49:41;;;;;;;10.63;7.53;;;;;;;;;;5108907;28;20008;-93
2024/01/07 09:52:08;;;;;;;10.15;7.07;;;;;;;;;;5106663;28;20023;-92
2024/01/07 09:54:33;;;;;;;10.48;7.20;;;;;;;;;;5108796;28;20053;-92
2024/01/07 09:57:00;;;;;;;11.03;7.20;;;;;;;;;;5106665;28;20016;-91
2024/01/07 09:59:27;;;;;;;9.27;6.25;;;;;;;;;;5107221;28;20041;-91
2024/01/07 10:01:52;;;;;;;8.63;6.97;;;;;;;;;;5107633;28;20039;-91
2024/01/07 10:04:18;;;;;;;8.20;5.87;;;;;;;;;;5107401;28;20250;-92
2024/01/07 10:06:43;;;;;;;9.33;6.87;;;;;;;;;;5107880;28;20023;-92
2024/01/07 10:09:08;;;;;;;8.27;6.90;;;;;;;;;;5106869;28;20088;-92
2024/01/07 10:11:33;;;;;;;7.40;5.83;;;;;;;;;;5107682;28;20016;-93
2024/01/07 10:13:58;;;;;;;10.40;7.10;;;;;;;;;;5107105;28;20024;-93
2024/01/07 10:16:24;;;;;;;9.17;6.43;;;;;;;;;;5107921;28;20019;-92
2024/01/07 10:18:49;;;;;;;7.97;6.10;;;;;;;;;;5108367;28;20069;-93
2024/01/07 10:21:14;;;;;;;9.90;6.83;;;;;;;;;;5107448;28;20085;-91
2024/01/07 10:23:39;;;;;;;10.27;6.60;;;;;;;;;;5108717;28;20118;-92
2024/01/07 10:26:06;;;;;;;8.50;6.25;;;;;;;;;;5112936;28;20047;-91
2024/01/07 10:28:31;;;;;;;8.63;6.63;;;;;;;;;;5107693;28;20043;-92
2024/01/07 10:30:56;;;;;;;10.05;7.00;;;;;;;;;;5120209;28;20042;-92
2024/01/07 10:33:25;;;;;;;9.03;6.50;;;;;;;;;;5101778;28;20027;-92
2024/01/07 10:35:57;;;;;;;9.82;7.28;;;;;;;;;;5094519;28;20065;-92
2024/01/07 10:38:22;;;;;;;10.17;6.00;;;;;;;;;;5092790;28;20024;-91
2024/01/07 10:40:49;;;;;;;8.73;6.47;;;;;;;;;;5093201;28;20855;-91
2024/01/07 10:43:15;;;;;;;10.40;6.88;;;;;;;;;;5094038;28;20157;-92
2024/01/07 10:45:40;;;;;;;12.07;6.60;;;;;;;;;;5093533;28;20038;-92
2024/01/07 10:48:07;;;;;;;9.37;6.40;;;;;;;;;;5092469;28;20024;-92
2024/01/07 10:50:33;;;;;;;9.48;6.40;;;;;;;;;;5092967;28;20024;-93
2024/01/07 10:53:04;;;;;;;11.15;7.32;;;;;;;;;;5093787;28;20023;-92
2024/01/07 10:55:33;;;;;;;6.73;5.07;;;;;;;;;;5092274;28;20027;-91
2024/01/07 10:57:59;;;;;;;8.30;5.88;;;;;;;;;;5093532;28;20040;-92
2024/01/07 11:00:24;;;;;;;9.38;6.43;;;;;;;;;;5092497;28;20059;-91
2024/01/07 11:03:09;;;;;;;8.93;6.07;;;;;;;;;;5092032;28;20024;-92
2024/01/07 11:05:44;;;;;;;8.18;6.68;;;;;;;;;;5093378;28;20451;-92
2024/01/07 11:08:22;;;;;;;8.95;5.97;;;;;;;;;;5093252;28;20530;-91
2024/01/07 11:10:50;;;;;;;9.70;6.67;;;;;;;;;;5093257;28;20054;-92
2024/01/07 11:13:35;;;;;;;9.63;6.50;;;;;;;;;;5102448;28;20039;-91
2024/01/07 11:16:04;;;;;;;8.45;5.90;;;;;;;;;;5103096;28;20024;-92
2024/01/07 11:18:33;;;;;;;9.15;6.18;;;;;;;;;;5095391;28;20496;-92
2024/01/07 11:21:00;;;;;;;7.60;5.13;;;;;;;;;;5092577;28;20039;-92
2024/01/07 11:23:39;;;;;;;7.80;6.40;;;;;;;;;;5092745;28;20028;-92
2024/01/07 11:26:05;;;;;;;8.57;6.60;;;;;;;;;;5092936;28;20364;-91
2024/01/07 11:28:43;;;;;;;7.32;5.30;;;;;;;;;;5092950;28;20505;-92
2024/01/07 11:31:08;;;;;;;10.13;6.75;;;;;;;;;;5093461;28;20016;-92
2024/01/07 11:33:36;;;;;;;10.27;6.80;;;;;;;;;;5096726;28;20016;-91
2024/01/07 11:36:02;;;;;;;12.00;6.97;;;;;;;;;;5098931;28;20081;-90
2024/01/07 11:38:27;;;;;;;9.37;6.90;;;;;;;;;;5100427;28;20071;-91
2024/01/07 11:40:53;;;;;;;9.93;6.40;;;;;;;;;;5113333;28;20289;-92
2024/01/07 11:43:19;;;;;;;8.97;5.00;;;;;;;;;;5095774;28;20058;-90
2024/01/07 11:45:44;;;;;;;10.70;6.20;;;;;;;;;;5093415;28;20545;-92
2024/01/07 11:48:10;;;;;;;10.37;6.00;;;;;;;;;;5093093;28;20324;-91
2024/01/07 11:50:35;;;;;;;10.60;6.40;;;;;;;;;;5091363;28;20468;-91
2024/01/07 11:53:00;;;;;;;10.90;6.40;;;;;;;;;;5092414;28;20028;-92
2024/01/07 11:55:25;;;;;;;9.60;6.17;;;;;;;;;;5093111;28;20020;-92
2024/01/07 11:57:51;;;;;;;10.97;6.50;;;;;;;;;;5097176;28;20009;-92
2024/01/07 12:00:17;;;;;;;6.95;5.32;;;;;;;;;;5094839;28;20399;-92
2024/01/07 12:02:42;;;;;;;8.57;5.67;;;;;;;;;;5105875;28;20032;-91
2024/01/07 12:05:07;;;;;;;8.70;5.63;;;;;;;;;;5095435;28;20008;-90
2024/01/07 12:07:33;;;;;;;7.70;5.30;;;;;;;;;;5093072;28;20027;-91
2024/01/07 12:09:58;;;;;;;6.67;4.70;;;;;;;;;;5092391;28;20012;-92
2024/01/07 12:12:24;;;;;;;6.27;4.90;;;;;;;;;;5092860;28;20359;-91
2024/01/07 12:14:49;;;;;;;7.70;4.80;;;;;;;;;;5092772;28;20031;-92
2024/01/07 12:17:16;;;;;;;5.90;4.10;;;;;;;;;;5091874;28;20020;-91
2024/01/07 12:19:42;;;;;;;5.85;4.50;;;;;;;;;;5092339;28;20061;-91
2024/01/07 12:22:07;;;;;;;10.10;4.93;;;;;;;;;;5092576;28;20047;-94
2024/01/07 12:24:32;;;;;;;5.70;3.77;;;;;;;;;;5094665;28;20012;-90
2024/01/07 12:27:03;;;;;;;6.17;4.20;;;;;;;;;;5093317;28;20030;-92
2024/01/07 12:29:28;;;;;;;5.78;4.07;;;;;;;;;;5094267;28;20012;-93
2024/01/07 12:31:53;;;;;;;6.70;4.13;;;;;;;;;;5093497;28;20099;-91
2024/01/07 12:34:22;;;;;;;4.90;4.37;;;;;;;;;;5094069;28;20411;-91
2024/01/07 12:36:48;;;;;;;5.75;4.43;;;;;;;;;;5091561;28;20042;-91
2024/01/07 12:39:13;;;;;;;5.40;4.32;;;;;;;;;;5092600;28;20511;-92
2024/01/07 12:41:38;;;;;;;6.53;4.97;;;;;;;;;;5093080;28;20023;-92
2024/01/07 12:44:04;;;;;;;6.50;5.07;;;;;;;;;;5097660;28;20020;-91
2024/01/07 12:46:30;;;;;;;5.77;4.83;;;;;;;;;;5104703;28;20030;-92
2024/01/07 12:48:55;;;;;;;5.67;4.53;;;;;;;;;;5100071;28;20103;-91
2024/01/07 12:51:21;;;;;;;6.30;4.23;;;;;;;;;;5092371;28;20300;-92
2024/01/07 12:53:46;;;;;;;5.80;4.77;;;;;;;;;;5095367;28;20084;-92
2024/01/07 12:56:13;;;;;;;5.03;4.50;;;;;;;;;;5091605;28;20065;-92
2024/01/07 12:58:38;;;;;;;5.10;4.03;;;;;;;;;;5091725;28;20534;-92